TimeEDT,TemperatureF,Dew PointF,Humidity,Sea Level PressureIn,VisibilityMPH,Wind Direction,Wind SpeedMPH,Gust SpeedMPH,PrecipitationIn,Events,Conditions,WindDirDegrees,DateUTC
12:55 AM,30.7,17.1,57,30.17,10.0,West,4.6,-,N/A,,Clear,260,2013-03-20 04:55:00
1:55 AM,29.1,17.1,61,30.15,10.0,WSW,4.6,-,N/A,,Clear,240,2013-03-20 05:55:00
2:55 AM,28.2,20.3,72,30.15,10.0,WSW,3.5,-,N/A,,Clear,240,2013-03-20 06:55:00
3:55 AM,27.5,17.6,66,30.14,10.0,WSW,4.6,-,N/A,,Clear,250,2013-03-20 07:55:00
4:55 AM,25.9,21.0,82,30.12,10.0,WSW,3.5,-,N/A,,Clear,240,2013-03-20 08:55:00
5:55 AM,25.2,20.5,82,30.10,10.0,Calm,Calm,-,N/A,,Clear,0,2013-03-20 09:55:00
6:55 AM,24.6,19.0,79,30.11,10.0,SW,4.6,-,N/A,,Clear,220,2013-03-20 10:55:00
7:55 AM,27.3,18.1,68,30.12,10.0,SW,4.6,-,N/A,,Clear,230,2013-03-20 11:55:00
8:55 AM,33.8,21.7,61,30.12,10.0,SW,5.8,-,N/A,,Clear,230,2013-03-20 12:55:00
9:55 AM,37.9,20.7,50,30.12,10.0,West,12.7,-,N/A,,Clear,280,2013-03-20 13:55:00
10:55 AM,40.5,22.1,48,30.10,10.0,WSW,13.8,-,N/A,,Clear,240,2013-03-20 14:55:00
11:55 AM,41.2,21.7,46,30.10,10.0,West,16.1,20.7,N/A,,Partly Cloudy,260,2013-03-20 15:55:00
12:55 PM,42.8,17.8,37,30.09,10.0,West,17.3,27.6,N/A,,Partly Cloudy,270,2013-03-20 16:55:00
1:55 PM,41.7,18.7,40,30.08,10.0,WNW,18.4,28.8,N/A,,Mostly Cloudy,290,2013-03-20 17:55:00
2:55 PM,37.0,16.0,42,30.07,10.0,West,17.3,24.2,N/A,,Overcast,280,2013-03-20 18:55:00
3:55 PM,38.8,18.3,44,30.05,10.0,West,15.0,29.9,N/A,,Mostly Cloudy,280,2013-03-20 19:55:00
4:55 PM,37.9,16.0,41,30.05,10.0,West,18.4,27.6,N/A,,Mostly Cloudy,280,2013-03-20 20:55:00
5:55 PM,35.1,13.3,41,30.06,10.0,WNW,16.1,23.0,N/A,,Overcast,300,2013-03-20 21:55:00
6:55 PM,32.2,11.8,43,30.07,10.0,WNW,17.3,-,N/A,,Mostly Cloudy,300,2013-03-20 22:55:00
7:55 PM,29.3,11.3,47,30.08,10.0,WNW,13.8,-,N/A,,Scattered Clouds,290,2013-03-20 23:55:00
8:55 PM,27.5,11.8,52,30.09,10.0,NW,15.0,21.9,N/A,,Mostly Cloudy,310,2013-03-21 00:55:00
9:55 PM,27.0,9.9,49,30.09,10.0,WNW,6.9,-,N/A,,Mostly Cloudy,300,2013-03-21 01:55:00
10:55 PM,25.3,10.4,53,30.09,10.0,WNW,8.1,-,N/A,,Clear,290,2013-03-21 02:55:00
11:55 PM,22.6,10.9,61,30.08,10.0,West,8.1,-,N/A,,Clear,270,2013-03-21 03:55:00